createdAt,value
2022-10-16T00:01:56.973Z,2.00
2022-10-16T00:11:58.363Z,2.33
2022-10-16T00:21:59.663Z,2.45
2022-10-16T00:32:00.981Z,2.17
2022-10-16T00:42:02.461Z,2.10
2022-10-16T00:52:03.662Z,2.17
2022-10-16T01:02:04.969Z,2.20
2022-10-16T01:12:06.264Z,2.10
2022-10-16T01:22:07.542Z,2.20
2022-10-16T01:32:08.822Z,2.20
2022-10-16T01:42:10.132Z,1.90
2022-10-16T01:52:11.477Z,2.00
2022-10-16T02:02:12.809Z,2.03
2022-10-16T02:12:14.171Z,2.80
2022-10-16T02:22:15.527Z,2.83
2022-10-16T02:32:16.883Z,2.17
2022-10-16T02:42:18.221Z,2.20
2022-10-16T02:52:19.513Z,2.30
2022-10-16T03:02:20.928Z,2.47
2022-10-16T03:12:22.275Z,2.70
2022-10-16T03:22:23.645Z,2.90
2022-10-16T03:32:26.327Z,2.20
2022-10-16T03:42:27.733Z,2.55
2022-10-16T03:52:29.059Z,3.65
2022-10-16T04:02:30.366Z,2.97
2022-10-16T04:12:31.655Z,3.58
2022-10-16T04:22:32.962Z,2.92
2022-10-16T04:32:34.241Z,3.35
2022-10-16T04:42:35.625Z,2.63
2022-10-16T04:52:37.125Z,2.65
2022-10-16T05:02:38.493Z,3.05
2022-10-16T05:12:39.861Z,2.78
2022-10-16T05:22:41.213Z,2.55
2022-10-16T05:32:42.500Z,2.80
2022-10-16T05:42:43.846Z,3.17
2022-10-16T05:52:45.163Z,2.90
2022-10-16T06:02:46.552Z,2.90
2022-10-16T06:12:47.837Z,3.13
2022-10-16T06:22:49.139Z,2.80
2022-10-16T06:32:50.514Z,2.90
2022-10-16T06:42:52.955Z,2.55
2022-10-16T06:52:54.294Z,3.25
2022-10-16T07:02:55.609Z,3.13
2022-10-16T07:12:56.894Z,2.40
2022-10-16T07:22:58.198Z,2.70
2022-10-16T07:32:59.447Z,2.92
2022-10-16T07:43:04.220Z,2.90
2022-10-16T07:53:05.556Z,2.72
2022-10-16T08:03:06.899Z,2.60
2022-10-16T08:23:09.451Z,2.58
2022-10-16T08:33:10.763Z,2.38
2022-10-16T08:43:12.112Z,2.20
2022-10-16T08:53:13.408Z,2.30
2022-10-16T09:03:14.637Z,2.78
2022-10-16T09:13:15.959Z,2.55
2022-10-16T09:23:17.418Z,2.67
2022-10-16T09:33:18.662Z,2.58
2022-10-16T09:43:19.869Z,2.83
2022-10-16T09:53:23.692Z,2.20
2022-10-16T10:03:24.984Z,1.80
2022-10-16T10:13:28.867Z,1.40
2022-10-16T10:23:30.957Z,2.00
2022-10-16T10:33:32.298Z,1.98
2022-10-16T10:43:33.668Z,1.30
2022-10-16T10:53:34.979Z,1.80
2022-10-16T11:03:36.446Z,1.77
2022-10-16T11:13:37.801Z,1.48
2022-10-16T11:23:39.188Z,2.20
2022-10-16T11:33:40.407Z,1.63
2022-10-16T11:43:41.630Z,2.33
2022-10-16T11:53:43.425Z,1.58
2022-10-16T12:03:46.908Z,1.80
2022-10-16T12:13:50.738Z,1.77
2022-10-16T12:23:52.202Z,2.00
2022-10-16T12:33:53.493Z,1.65
2022-10-16T12:43:54.968Z,2.17
2022-10-16T12:53:56.212Z,2.92
2022-10-16T13:03:57.730Z,1.63
2022-10-16T13:13:58.961Z,2.25
2022-10-16T13:24:00.446Z,2.03
2022-10-16T13:34:01.775Z,2.60
2022-10-16T13:44:03.001Z,2.80
2022-10-16T13:54:04.267Z,3.92
2022-10-16T14:04:06.112Z,3.45
2022-10-16T14:14:07.456Z,3.50
2022-10-16T14:24:08.918Z,3.22
2022-10-16T14:34:10.124Z,5.22
2022-10-16T14:44:11.351Z,2.38
2022-10-16T14:54:12.626Z,2.70
2022-10-16T15:04:13.966Z,2.30
2022-10-16T15:24:20.681Z,2.53
2022-10-16T15:34:22.841Z,2.20
2022-10-16T15:44:26.479Z,2.42
2022-10-16T15:54:28.928Z,3.33
2022-10-16T16:04:43.561Z,3.33
2022-10-16T16:14:47.561Z,2.75
2022-10-16T16:24:48.825Z,6.03
2022-10-16T16:34:50.117Z,5.30
2022-10-16T16:44:51.584Z,4.88
2022-10-16T16:54:53.062Z,5.30
2022-10-16T17:04:54.514Z,3.80
2022-10-16T17:14:55.727Z,4.78
2022-10-16T17:24:56.977Z,3.80
2022-10-16T17:34:58.268Z,5.10
2022-10-16T17:44:59.551Z,5.95
2022-10-16T17:55:01.382Z,8.77
2022-10-16T18:05:06.193Z,19.33
2022-10-16T18:15:07.582Z,12.27
2022-10-16T18:25:08.929Z,9.13
2022-10-16T18:35:10.238Z,4.28
2022-10-16T18:45:11.607Z,4.20
2022-10-16T18:55:12.903Z,4.55
2022-10-16T19:05:15.752Z,4.63
2022-10-16T19:15:17.303Z,6.13
2022-10-16T19:25:18.646Z,5.10
2022-10-16T19:35:20.138Z,5.50
2022-10-16T19:45:21.547Z,5.38
2022-10-16T19:55:23.136Z,6.07
2022-10-16T20:05:24.606Z,6.78
2022-10-16T20:15:26.037Z,6.50
2022-10-16T20:25:27.519Z,5.82
2022-10-16T20:35:28.830Z,5.97
2022-10-16T20:45:30.126Z,6.30
2022-10-16T20:55:31.412Z,6.30
2022-10-16T21:05:34.663Z,7.05
2022-10-16T21:15:35.970Z,7.05
2022-10-16T21:25:37.325Z,6.30
2022-10-16T21:35:38.622Z,12.07
2022-10-16T21:45:40.209Z,8.82
2022-10-16T21:55:41.487Z,9.88
2022-10-16T22:05:42.946Z,8.43
2022-10-16T22:15:44.309Z,7.07
2022-10-16T22:25:45.608Z,6.93
2022-10-16T22:35:46.924Z,7.00
2022-10-16T22:45:48.223Z,6.13
2022-10-16T22:55:49.570Z,6.65
2022-10-16T23:05:50.894Z,5.57
2022-10-16T23:15:52.383Z,6.28
2022-10-16T23:25:53.686Z,6.07
2022-10-16T23:35:54.960Z,5.57
2022-10-16T23:45:56.329Z,5.88
2022-10-16T23:55:57.611Z,6.30
